Time;durP1;ratioP1;P1;durP2;ratioP2;P2;SDS_P1;SDS_P2;PMS_P1;PMS_P2;Temp;Humidity;BMP_temperature;BMP_pressure;BME280_temperature;BME280_humidity;BME280_pressure;Samples;Min_cycle;Max_cycle;Signal;HPM_P1;HPM_P2
2024/01/30 00:01:51;;;;;;;133.52;80.03;;;4.00;99.90;;;;;;5020927;28;20141;-76
2024/01/30 00:04:17;;;;;;;127.97;79.22;;;4.00;99.90;;;;;;5025178;28;20124;-76
2024/01/30 00:06:43;;;;;;;138.68;83.10;;;3.90;99.90;;;;;;5046776;28;20112;-76
2024/01/30 00:09:10;;;;;;;128.65;82.97;;;3.90;99.90;;;;;;5023475;28;20457;-76
2024/01/30 00:11:36;;;;;;;159.95;91.68;;;3.90;99.90;;;;;;5033242;28;20506;-76
2024/01/30 00:14:03;;;;;;;130.05;81.43;;;3.90;99.90;;;;;;5023311;28;20438;-76
2024/01/30 00:16:28;;;;;;;138.68;83.50;;;3.80;99.90;;;;;;5032156;28;20045;-77
2024/01/30 00:18:54;;;;;;;154.75;89.88;;;3.80;99.90;;;;;;5026867;28;20426;-76
2024/01/30 00:21:20;;;;;;;138.60;84.47;;;3.80;99.90;;;;;;5025418;28;20176;-76
2024/01/30 00:23:46;;;;;;;136.10;83.05;;;3.80;99.90;;;;;;5029346;28;20049;-76
2024/01/30 00:26:12;;;;;;;151.32;90.22;;;3.80;99.90;;;;;;5040429;28;20404;-76
2024/01/30 00:28:38;;;;;;;136.45;83.43;;;3.80;99.90;;;;;;5026100;28;20100;-76
2024/01/30 00:31:04;;;;;;;144.40;82.28;;;3.80;99.90;;;;;;5025975;28;20525;-76
2024/01/30 00:33:30;;;;;;;154.63;84.15;;;3.80;99.90;;;;;;5021527;28;20057;-76
2024/01/30 00:35:56;;;;;;;153.13;90.93;;;3.80;99.90;;;;;;5019262;28;20128;-76
2024/01/30 00:38:21;;;;;;;141.75;84.28;;;3.80;99.90;;;;;;5025535;28;20121;-76
2024/01/30 00:40:47;;;;;;;134.57;86.10;;;3.80;99.90;;;;;;5019201;28;20536;-76
2024/01/30 00:43:12;;;;;;;135.70;86.35;;;3.80;99.90;;;;;;5049898;28;20060;-76
2024/01/30 00:45:38;;;;;;;136.25;81.25;;;3.80;99.90;;;;;;5044692;28;20048;-76
2024/01/30 00:48:04;;;;;;;133.27;83.00;;;3.80;99.90;;;;;;5035322;28;20045;-76
2024/01/30 00:50:30;;;;;;;137.45;81.70;;;3.80;99.90;;;;;;5032652;28;20136;-77
2024/01/30 00:52:55;;;;;;;129.23;79.47;;;3.80;99.90;;;;;;5025620;28;20049;-76
2024/01/30 00:55:22;;;;;;;147.95;89.28;;;3.80;99.90;;;;;;5031465;28;20099;-76
2024/01/30 00:57:48;;;;;;;148.65;89.45;;;3.80;99.90;;;;;;5037499;28;20045;-76
2024/01/30 01:00:16;;;;;;;132.32;82.57;;;3.70;99.90;;;;;;5024717;28;20045;-76
2024/01/30 01:02:42;;;;;;;148.68;86.07;;;3.70;99.90;;;;;;5015363;28;20051;-76
2024/01/30 01:05:08;;;;;;;130.02;80.63;;;3.70;99.90;;;;;;5030397;28;20049;-76
2024/01/30 01:07:34;;;;;;;126.30;80.63;;;3.70;99.90;;;;;;5022706;28;20073;-76
2024/01/30 01:09:59;;;;;;;131.38;81.72;;;3.70;99.90;;;;;;5020354;28;20693;-77
2024/01/30 01:12:25;;;;;;;115.50;75.50;;;3.70;99.90;;;;;;5025261;28;20088;-76
2024/01/30 01:14:51;;;;;;;122.53;74.75;;;3.70;99.90;;;;;;5024837;28;20107;-76
2024/01/30 01:17:18;;;;;;;120.78;75.75;;;3.60;99.90;;;;;;5024670;28;20120;-76
2024/01/30 01:19:44;;;;;;;125.63;76.47;;;3.60;99.90;;;;;;5001497;28;20508;-76
2024/01/30 01:22:10;;;;;;;117.10;74.47;;;3.60;99.90;;;;;;5028374;28;20050;-76
2024/01/30 01:24:36;;;;;;;117.68;76.03;;;3.60;99.90;;;;;;5020800;28;20048;-76
2024/01/30 01:27:02;;;;;;;125.53;78.47;;;3.60;99.90;;;;;;5018665;28;20049;-76
2024/01/30 01:29:28;;;;;;;132.75;78.38;;;3.50;99.90;;;;;;5020526;28;20052;-76
2024/01/30 01:31:57;;;;;;;130.30;80.40;;;3.50;99.90;;;;;;5017470;28;20077;-75
2024/01/30 01:34:24;;;;;;;129.65;79.28;;;3.50;99.90;;;;;;5035409;28;20473;-76
2024/01/30 01:36:51;;;;;;;116.30;74.30;;;3.50;99.90;;;;;;5027290;28;20494;-75
2024/01/30 01:39:17;;;;;;;122.40;76.40;;;3.50;99.90;;;;;;5030556;28;20303;-76
2024/01/30 01:41:43;;;;;;;124.35;76.30;;;3.40;99.90;;;;;;5024028;28;20048;-77
2024/01/30 01:44:09;;;;;;;117.15;73.97;;;3.40;99.90;;;;;;5024200;28;20418;-76
2024/01/30 01:46:35;;;;;;;155.02;90.00;;;3.40;99.90;;;;;;5021690;28;20123;-76
2024/01/30 01:49:02;;;;;;;121.07;76.68;;;3.40;99.90;;;;;;5031579;28;20053;-76
2024/01/30 01:51:29;;;;;;;125.13;77.80;;;3.40;99.90;;;;;;5033524;28;20053;-76
2024/01/30 01:53:56;;;;;;;144.55;86.72;;;3.40;99.90;;;;;;5036632;28;20070;-77
2024/01/30 01:56:24;;;;;;;113.32;74.82;;;3.40;99.90;;;;;;5029169;28;20038;-77
2024/01/30 01:58:51;;;;;;;126.85;76.93;;;3.40;99.90;;;;;;5030300;28;20049;-76
2024/01/30 02:01:19;;;;;;;128.40;74.18;;;3.40;99.90;;;;;;5023819;28;20048;-76
2024/01/30 02:03:45;;;;;;;;;;;3.40;99.90;;;;;;5020801;28;20849;-76
2024/01/30 02:06:11;;;;;;;116.60;69.50;;;3.40;99.90;;;;;;5031689;28;19925;-77
2024/01/30 02:08:38;;;;;;;107.65;71.18;;;3.30;99.90;;;;;;5028690;28;20125;-76
2024/01/30 02:11:04;;;;;;;116.25;76.63;;;3.40;99.90;;;;;;5034274;28;20053;-77
2024/01/30 02:13:29;;;;;;;125.43;75.50;;;3.40;99.90;;;;;;5027571;28;20483;-76
2024/01/30 02:15:55;;;;;;;133.07;79.07;;;3.30;99.90;;;;;;5019755;28;20057;-76
2024/01/30 02:18:21;;;;;;;121.82;77.28;;;3.40;99.90;;;;;;5026114;28;20517;-76
2024/01/30 02:20:47;;;;;;;119.93;71.75;;;3.40;99.90;;;;;;5031271;28;20560;-76
2024/01/30 02:23:15;;;;;;;125.30;74.78;;;3.40;99.90;;;;;;5029386;28;20052;-76
2024/01/30 02:25:44;;;;;;;120.05;72.18;;;3.40;99.90;;;;;;5026444;28;20052;-76
2024/01/30 02:28:13;;;;;;;134.13;75.55;;;3.40;99.90;;;;;;5048945;28;20524;-76
2024/01/30 02:30:46;;;;;;;129.55;81.97;;;3.40;99.90;;;;;;5035176;28;20111;-76
2024/01/30 02:33:12;;;;;;;135.75;76.20;;;3.50;99.90;;;;;;5049480;28;20076;-76
2024/01/30 02:35:39;;;;;;;131.18;80.78;;;3.50;99.90;;;;;;5036888;28;20094;-76
2024/01/30 02:38:04;;;;;;;131.07;80.45;;;3.50;99.90;;;;;;5021773;28;20045;-76
2024/01/30 02:40:31;;;;;;;131.60;75.32;;;3.60;99.90;;;;;;5039595;28;20056;-76
2024/01/30 02:42:57;;;;;;;131.10;79.25;;;3.60;99.90;;;;;;5025609;28;20379;-77
2024/01/30 02:45:23;;;;;;;122.75;74.82;;;3.60;99.90;;;;;;5032474;28;20085;-76
2024/01/30 02:47:49;;;;;;;136.35;79.75;;;3.60;99.90;;;;;;5029781;28;20080;-76
2024/01/30 02:50:15;;;;;;;128.52;79.40;;;3.60;99.90;;;;;;5033277;28;20095;-76
2024/01/30 02:52:40;;;;;;;122.05;75.75;;;3.60;99.90;;;;;;5021645;28;20107;-76
2024/01/30 02:55:06;;;;;;;131.02;76.55;;;3.60;99.90;;;;;;5027754;28;20052;-76
2024/01/30 02:57:34;;;;;;;126.80;74.60;;;3.60;99.90;;;;;;5025488;28;20108;-76
2024/01/30 02:59:59;;;;;;;132.60;79.70;;;3.70;99.90;;;;;;5026020;28;20049;-76
2024/01/30 03:02:25;;;;;;;129.10;74.82;;;3.70;99.90;;;;;;5031654;28;20057;-76
2024/01/30 03:04:51;;;;;;;125.63;76.25;;;3.80;99.90;;;;;;5027620;28;20044;-76
2024/01/30 03:07:16;;;;;;;130.00;76.57;;;4.00;99.90;;;;;;5027413;28;20111;-76
2024/01/30 03:09:43;;;;;;;152.00;85.07;;;4.10;99.90;;;;;;5025248;28;20041;-77
2024/01/30 03:12:09;;;;;;;143.15;80.00;;;4.10;99.90;;;;;;5024049;28;20129;-76
2024/01/30 03:14:35;;;;;;;126.53;75.10;;;4.20;99.90;;;;;;5030757;28;20070;-76
2024/01/30 03:17:00;;;;;;;131.48;76.90;;;4.20;99.90;;;;;;5019336;28;20053;-77
2024/01/30 03:19:26;;;;;;;122.43;73.20;;;4.40;99.90;;;;;;5026661;28;20056;-76
2024/01/30 03:21:52;;;;;;;135.93;80.60;;;4.50;99.90;;;;;;5026694;28;20112;-76
2024/01/30 03:24:17;;;;;;;136.85;78.43;;;4.60;99.90;;;;;;5024373;28;20046;-76
2024/01/30 03:26:44;;;;;;;142.00;82.65;;;4.70;99.90;;;;;;5022920;28;20504;-76
2024/01/30 03:29:09;;;;;;;151.98;76.65;;;4.70;99.90;;;;;;5028773;28;20045;-77
2024/01/30 03:31:36;;;;;;;128.60;75.35;;;4.70;99.90;;;;;;5024928;28;20049;-76
2024/01/30 03:34:02;;;;;;;126.80;76.40;;;4.80;99.90;;;;;;5026835;28;20076;-76
2024/01/30 03:36:28;;;;;;;142.32;78.03;;;4.90;99.90;;;;;;5020755;28;20045;-76
2024/01/30 03:38:54;;;;;;;132.93;79.47;;;4.90;99.90;;;;;;5025133;28;20112;-76
2024/01/30 03:41:19;;;;;;;129.55;77.10;;;4.90;99.90;;;;;;5025297;28;20056;-76
2024/01/30 03:43:46;;;;;;;128.75;78.28;;;5.00;99.90;;;;;;5025258;28;20045;-76
2024/01/30 03:46:12;;;;;;;119.68;69.10;;;5.00;99.90;;;;;;5027823;28;20441;-76
2024/01/30 03:48:39;;;;;;;129.65;74.55;;;5.10;99.90;;;;;;5022339;28;20538;-77
2024/01/30 03:51:05;;;;;;;127.38;74.25;;;5.20;99.90;;;;;;5027304;28;20053;-77
2024/01/30 03:53:30;;;;;;;119.75;72.70;;;5.30;99.90;;;;;;5026536;28;20044;-76
2024/01/30 03:55:56;;;;;;;122.10;73.03;;;5.40;99.90;;;;;;5022911;28;20053;-76
2024/01/30 03:58:22;;;;;;;120.43;73.35;;;5.50;99.90;;;;;;5025760;28;20096;-77
2024/01/30 04:00:47;;;;;;;125.70;72.88;;;5.40;99.90;;;;;;5021846;28;20088;-76
2024/01/30 04:03:15;;;;;;;123.75;69.80;;;5.50;99.90;;;;;;5023847;28;20053;-76
2024/01/30 04:05:41;;;;;;;124.80;69.57;;;5.50;99.90;;;;;;5023823;28;20453;-76
2024/01/30 04:08:07;;;;;;;108.35;64.10;;;5.60;99.90;;;;;;5025523;28;20812;-77
2024/01/30 04:10:33;;;;;;;116.82;67.70;;;5.60;99.90;;;;;;5026823;28;20053;-77
2024/01/30 04:12:59;;;;;;;114.38;69.03;;;5.70;99.90;;;;;;5019169;28;20057;-77
2024/01/30 04:15:25;;;;;;;106.70;64.78;;;5.80;99.90;;;;;;5032395;28;20076;-76
2024/01/30 04:17:51;;;;;;;115.38;67.72;;;5.90;99.90;;;;;;5024990;28;20049;-77
2024/01/30 04:20:17;;;;;;;121.13;64.82;;;5.90;99.90;;;;;;5036818;28;20405;-76
2024/01/30 04:22:46;;;;;;;95.30;61.25;;;6.00;99.90;;;;;;5023902;28;20103;-77
2024/01/30 04:25:13;;;;;;;104.63;60.30;;;6.10;99.90;;;;;;5016062;28;20045;-76
2024/01/30 04:27:39;;;;;;;104.38;62.97;;;6.10;99.90;;;;;;5022677;28;20133;-77
2024/01/30 04:30:05;;;;;;;101.45;59.85;;;6.20;99.90;;;;;;5033516;28;20045;-77
2024/01/30 04:32:32;;;;;;;104.07;59.10;;;6.20;99.90;;;;;;5025948;28;20124;-77
2024/01/30 04:34:58;;;;;;;103.50;59.97;;;6.30;99.90;;;;;;5024704;28;20045;-77
2024/01/30 04:37:24;;;;;;;100.78;59.58;;;6.40;99.90;;;;;;5026204;28;20037;-77
2024/01/30 04:39:50;;;;;;;103.72;58.63;;;6.40;99.90;;;;;;5023538;28;20885;-78
2024/01/30 04:42:16;;;;;;;93.32;57.55;;;6.50;99.90;;;;;;5024253;28;20046;-77
2024/01/30 04:44:42;;;;;;;99.03;57.05;;;6.50;99.90;;;;;;5024474;28;20037;-77
2024/01/30 04:47:11;;;;;;;94.15;55.78;;;6.50;99.90;;;;;;5021646;28;20053;-77
2024/01/30 04:49:39;;;;;;;91.18;55.30;;;6.60;99.90;;;;;;5021150;28;20050;-77
2024/01/30 04:52:06;;;;;;;94.43;55.63;;;6.60;99.90;;;;;;5021896;28;20056;-77
2024/01/30 04:54:31;;;;;;;98.15;56.72;;;6.70;99.90;;;;;;5025859;28;20448;-78
2024/01/30 04:56:58;;;;;;;103.38;57.17;;;6.70;99.90;;;;;;5024071;28;20049;-76
2024/01/30 04:59:24;;;;;;;98.43;52.60;;;6.80;99.90;;;;;;5025060;28;20041;-77
2024/01/30 05:01:50;;;;;;;96.28;57.05;;;6.80;99.90;;;;;;5021488;28;20041;-77
2024/01/30 05:04:15;;;;;;;99.20;57.58;;;6.90;99.90;;;;;;5020298;28;20046;-77
2024/01/30 05:06:41;;;;;;;91.88;55.80;;;6.90;99.90;;;;;;5022464;28;20532;-77
2024/01/30 05:09:07;;;;;;;91.72;55.90;;;6.90;99.90;;;;;;5002943;28;20405;-77
2024/01/30 05:11:42;;;;;;;92.20;52.90;;;7.00;99.90;;;;;;5025556;28;20509;-77
2024/01/30 05:14:08;;;;;;;91.70;53.63;;;7.00;99.90;;;;;;5021948;28;20045;-76
2024/01/30 05:16:34;;;;;;;92.00;53.50;;;7.00;99.90;;;;;;5026274;28;20556;-77
2024/01/30 05:19:00;;;;;;;86.13;53.97;;;7.00;99.90;;;;;;5039104;28;20065;-77
2024/01/30 05:21:26;;;;;;;93.45;54.70;;;7.10;99.90;;;;;;5020131;28;20111;-77
2024/01/30 05:23:51;;;;;;;92.75;53.67;;;7.10;99.90;;;;;;5027172;28;20542;-77
2024/01/30 05:26:17;;;;;;;100.18;57.45;;;7.10;99.90;;;;;;5029528;28;20891;-76
2024/01/30 05:28:46;;;;;;;89.40;54.40;;;7.10;99.90;;;;;;5028098;28;20060;-77
2024/01/30 05:31:12;;;;;;;99.50;53.45;;;7.10;99.90;;;;;;5028878;28;20045;-78
2024/01/30 05:33:37;;;;;;;93.78;55.03;;;7.10;99.90;;;;;;5028577;28;20276;-77
2024/01/30 05:36:03;;;;;;;97.47;55.65;;;7.10;99.90;;;;;;5029770;28;20073;-76
2024/01/30 05:38:30;;;;;;;87.97;53.60;;;7.10;99.90;;;;;;5025300;28;20038;-76
2024/01/30 05:40:57;;;;;;;88.70;54.25;;;7.10;99.90;;;;;;5025058;28;20041;-77
2024/01/30 05:43:23;;;;;;;93.18;53.85;;;7.10;99.90;;;;;;5035299;28;20046;-76
2024/01/30 05:45:49;;;;;;;85.75;53.47;;;7.10;99.90;;;;;;5029943;28;20038;-77
2024/01/30 05:48:14;;;;;;;91.72;53.20;;;7.10;99.90;;;;;;5029662;28;20068;-76
2024/01/30 05:50:40;;;;;;;81.70;52.65;;;7.10;99.90;;;;;;5029336;28;20142;-76
2024/01/30 05:53:06;;;;;;;87.78;53.75;;;7.10;99.90;;;;;;5059716;28;20045;-76
2024/01/30 05:55:31;;;;;;;91.68;53.55;;;7.20;99.90;;;;;;5052394;28;20057;-77
2024/01/30 05:57:57;;;;;;;95.40;53.15;;;7.20;99.90;;;;;;5028416;28;21092;-76
2024/01/30 06:00:23;;;;;;;92.82;52.95;;;7.20;99.90;;;;;;5032686;28;20041;-75
2024/01/30 06:02:49;;;;;;;91.13;53.58;;;7.20;99.90;;;;;;5027782;28;20537;-76
2024/01/30 06:05:15;;;;;;;86.05;53.00;;;7.20;99.90;;;;;;5026875;28;20049;-76
2024/01/30 06:07:40;;;;;;;88.00;52.38;;;7.20;99.90;;;;;;5012501;28;20052;-76
2024/01/30 06:10:07;;;;;;;87.15;52.53;;;7.30;99.90;;;;;;5025750;28;20104;-76
2024/01/30 06:12:33;;;;;;;85.22;53.50;;;7.30;99.90;;;;;;5031282;28;20045;-76
2024/01/30 06:14:58;;;;;;;87.75;53.35;;;7.30;99.90;;;;;;5025695;28;20058;-76
2024/01/30 06:17:24;;;;;;;85.53;52.85;;;7.20;99.90;;;;;;5046845;28;20064;-76
2024/01/30 06:19:50;;;;;;;93.75;51.75;;;7.30;99.90;;;;;;5026733;28;20057;-76
2024/01/30 06:22:16;;;;;;;89.60;51.88;;;7.30;99.90;;;;;;5030460;28;20566;-76
2024/01/30 06:24:44;;;;;;;83.47;52.88;;;7.30;99.90;;;;;;5025524;28;20065;-76
2024/01/30 06:27:10;;;;;;;81.22;51.30;;;7.30;99.90;;;;;;5032926;28;20527;-76
2024/01/30 06:29:36;;;;;;;83.32;51.72;;;7.30;99.90;;;;;;5027409;28;20045;-76
2024/01/30 06:32:01;;;;;;;79.75;51.40;;;7.30;99.90;;;;;;5025599;28;20045;-76
2024/01/30 06:34:27;;;;;;;81.53;52.38;;;7.30;99.90;;;;;;5023209;28;20165;-76
2024/01/30 06:36:53;;;;;;;79.13;50.25;;;7.30;99.90;;;;;;5021204;28;20054;-76
2024/01/30 06:39:18;;;;;;;88.43;50.13;;;7.30;99.90;;;;;;5010549;28;20041;-76
2024/01/30 06:41:46;;;;;;;80.95;50.92;;;7.30;99.90;;;;;;5027407;28;20045;-76
2024/01/30 06:44:12;;;;;;;85.45;50.72;;;7.30;99.90;;;;;;5020635;28;20188;-76
2024/01/30 06:46:39;;;;;;;87.55;50.85;;;7.30;99.90;;;;;;5020913;28;20050;-76
2024/01/30 06:49:04;;;;;;;87.25;51.72;;;7.30;99.90;;;;;;5026700;28;20068;-76
2024/01/30 06:51:30;;;;;;;79.43;51.00;;;7.40;99.90;;;;;;5029299;28;20518;-76
2024/01/30 06:53:56;;;;;;;92.72;53.15;;;7.40;99.90;;;;;;5025166;28;20091;-76
2024/01/30 06:56:22;;;;;;;82.93;53.58;;;7.40;99.90;;;;;;5026018;28;20111;-76
2024/01/30 06:58:51;;;;;;;88.07;49.03;;;7.50;99.90;;;;;;5026568;28;20073;-76
2024/01/30 07:01:16;;;;;;;82.82;48.03;;;7.40;99.90;;;;;;5020651;28;20140;-76
2024/01/30 07:03:43;;;;;;;92.43;53.20;;;7.40;99.90;;;;;;5025556;28;20047;-77
2024/01/30 07:06:12;;;;;;;97.07;53.67;;;7.40;99.90;;;;;;5023928;28;20112;-77
2024/01/30 07:08:40;;;;;;;86.82;52.95;;;7.50;99.90;;;;;;5024659;28;20044;-77
2024/01/30 07:11:06;;;;;;;83.70;49.60;;;7.50;99.90;;;;;;5022076;28;20125;-76
2024/01/30 07:13:32;;;;;;;83.38;51.85;;;7.50;99.90;;;;;;5026545;28;20052;-76
2024/01/30 07:15:58;;;;;;;84.25;51.20;;;7.50;99.90;;;;;;5025038;28;20099;-76
2024/01/30 07:18:24;;;;;;;86.18;50.92;;;7.50;99.90;;;;;;5016952;28;20045;-77
2024/01/30 07:20:49;;;;;;;81.85;50.85;;;7.50;99.90;;;;;;5017657;28;20108;-76
2024/01/30 07:23:17;;;;;;;78.22;51.13;;;7.50;99.90;;;;;;5025204;28;20041;-76
2024/01/30 07:25:48;;;;;;;72.75;48.58;;;7.60;99.90;;;;;;5027220;28;20127;-76
2024/01/30 07:28:16;;;;;;;78.53;48.92;;;7.60;99.90;;;;;;5019711;28;20616;-76
2024/01/30 07:30:42;;;;;;;76.38;47.45;;;7.60;99.90;;;;;;5023869;28;20163;-76
2024/01/30 07:33:09;;;;;;;83.00;49.22;;;7.60;99.90;;;;;;5023247;28;20050;-76
2024/01/30 07:35:35;;;;;;;81.38;49.40;;;7.60;99.90;;;;;;5025211;28;20120;-76
2024/01/30 07:38:01;;;;;;;81.90;50.20;;;7.60;99.90;;;;;;5026240;28;22109;-76
2024/01/30 07:40:27;;;;;;;87.70;49.00;;;7.60;99.90;;;;;;5023212;28;20052;-76
2024/01/30 07:42:56;;;;;;;81.25;50.72;;;7.70;99.90;;;;;;5032360;28;20041;-76
2024/01/30 07:45:22;;;;;;;81.30;48.17;;;7.70;99.90;;;;;;5027431;28;20033;-76
2024/01/30 07:47:51;;;;;;;85.50;48.03;;;7.70;99.90;;;;;;5017236;28;20064;-76
2024/01/30 07:50:18;;;;;;;78.50;45.88;;;7.70;99.90;;;;;;5020441;28;20499;-76
2024/01/30 07:52:44;;;;;;;74.95;47.30;;;7.70;99.90;;;;;;5020864;28;20061;-76
2024/01/30 07:55:10;;;;;;;73.07;48.28;;;7.70;99.90;;;;;;5007692;28;20557;-76
2024/01/30 07:57:38;;;;;;;84.50;48.83;;;7.80;99.90;;;;;;5004447;28;20084;-76
2024/01/30 08:00:05;;;;;;;76.32;46.85;;;7.80;99.90;;;;;;5027826;28;20045;-76
2024/01/30 08:02:31;;;;;;;80.97;47.50;;;7.80;99.90;;;;;;5027892;28;20045;-76
2024/01/30 08:04:56;;;;;;;87.30;48.40;;;7.70;99.90;;;;;;5025701;28;20303;-76
2024/01/30 08:07:22;;;;;;;77.22;47.15;;;7.70;99.90;;;;;;5026202;28;20091;-76
2024/01/30 08:09:48;;;;;;;70.40;47.58;;;7.80;99.90;;;;;;5021539;28;20107;-76
2024/01/30 08:12:14;;;;;;;85.55;48.30;;;7.80;99.90;;;;;;5023749;28;20059;-76
2024/01/30 08:14:41;;;;;;;84.28;47.42;;;7.80;99.90;;;;;;5014868;28;20036;-76
2024/01/30 08:17:07;;;;;;;92.25;48.17;;;7.80;99.90;;;;;;5004504;28;20046;-76
2024/01/30 08:19:33;;;;;;;88.28;47.97;;;7.80;99.90;;;;;;5024276;28;20053;-76
2024/01/30 08:22:03;;;;;;;70.63;47.00;;;7.80;99.90;;;;;;5025877;28;20679;-76
2024/01/30 08:24:29;;;;;;;81.93;47.92;;;7.90;99.90;;;;;;5024083;28;20045;-76
2024/01/30 08:26:55;;;;;;;76.07;44.83;;;7.90;99.90;;;;;;5031351;28;20084;-76
2024/01/30 08:29:20;;;;;;;79.88;46.63;;;7.90;99.90;;;;;;5028381;28;20136;-76
2024/01/30 08:31:46;;;;;;;79.32;46.85;;;7.90;99.90;;;;;;5009915;28;20052;-76
2024/01/30 08:34:12;;;;;;;80.45;48.00;;;7.90;99.90;;;;;;5024809;28;20033;-76
2024/01/30 08:36:37;;;;;;;74.18;45.95;;;8.00;99.90;;;;;;5016595;28;20125;-77
2024/01/30 08:39:05;;;;;;;63.58;43.10;;;8.00;99.90;;;;;;5019357;28;20124;-76
2024/01/30 08:41:30;;;;;;;75.80;47.70;;;8.00;99.90;;;;;;5026082;28;20081;-76
2024/01/30 08:43:56;;;;;;;69.57;45.10;;;7.90;99.90;;;;;;5022591;28;20131;-76
2024/01/30 08:46:22;;;;;;;77.90;45.58;;;8.10;99.90;;;;;;5018446;28;20057;-76
2024/01/30 08:48:47;;;;;;;70.78;45.47;;;8.10;99.90;;;;;;5024239;28;20037;-76
2024/01/30 08:51:15;;;;;;;69.93;44.20;;;8.10;99.90;;;;;;5026883;28;20044;-76
2024/01/30 08:53:40;;;;;;;75.72;45.53;;;8.10;99.90;;;;;;5022296;28;20052;-76
2024/01/30 08:56:07;;;;;;;70.88;44.40;;;8.20;99.90;;;;;;5024384;28;20491;-76
2024/01/30 08:58:32;;;;;;;71.85;45.85;;;8.20;99.90;;;;;;5022925;28;20045;-76
2024/01/30 09:00:58;;;;;;;69.00;44.70;;;8.20;99.90;;;;;;5012222;28;20042;-76
2024/01/30 09:03:24;;;;;;;68.47;43.55;;;8.20;99.90;;;;;;5025796;28;20057;-76
2024/01/30 09:05:50;;;;;;;71.63;43.58;;;8.20;99.90;;;;;;5025126;28;20486;-76
2024/01/30 09:08:15;;;;;;;70.68;42.58;;;8.30;99.90;;;;;;5021288;28;20037;-76
2024/01/30 09:10:41;;;;;;;68.22;43.65;;;8.30;99.90;;;;;;5023518;28;20817;-76
2024/01/30 09:13:06;;;;;;;70.88;43.05;;;8.30;99.90;;;;;;5022825;28;20037;-76
2024/01/30 09:15:32;;;;;;;70.50;43.58;;;8.40;99.90;;;;;;5026179;28;20090;-76
2024/01/30 09:17:58;;;;;;;67.35;42.75;;;8.40;99.90;;;;;;5025104;28;20125;-76
2024/01/30 09:20:23;;;;;;;77.13;46.25;;;8.40;99.90;;;;;;5025310;28;20179;-76
2024/01/30 09:22:49;;;;;;;72.35;47.00;;;8.50;99.90;;;;;;5022824;28;20179;-76
2024/01/30 09:25:15;;;;;;;71.93;42.60;;;8.50;99.90;;;;;;5021577;28;20050;-76
2024/01/30 09:27:40;;;;;;;67.15;43.55;;;8.50;99.90;;;;;;5024967;28;20525;-76
2024/01/30 09:30:07;;;;;;;57.63;39.90;;;8.50;99.90;;;;;;5017675;28;20042;-76
2024/01/30 09:32:32;;;;;;;75.40;41.60;;;8.50;99.90;;;;;;5023669;28;20061;-76
2024/01/30 09:34:58;;;;;;;63.58;44.45;;;8.50;99.90;;;;;;5023127;28;20418;-76
2024/01/30 09:37:24;;;;;;;63.30;41.70;;;8.50;99.90;;;;;;5024801;28;20045;-76
2024/01/30 09:39:49;;;;;;;64.22;41.80;;;8.60;99.90;;;;;;5025085;28;20136;-76
2024/01/30 09:42:26;;;;;;;64.93;44.45;;;8.60;99.90;;;;;;5032716;28;20048;-76
2024/01/30 09:44:53;;;;;;;63.35;41.72;;;8.70;99.90;;;;;;5020617;28;20041;-76
2024/01/30 09:47:19;;;;;;;57.08;39.78;;;8.70;99.90;;;;;;5019034;28;20042;-76
2024/01/30 09:49:45;;;;;;;63.72;41.83;;;8.80;99.90;;;;;;5023962;28;20084;-76
2024/01/30 09:52:11;;;;;;;65.85;45.28;;;8.80;99.90;;;;;;5024019;28;20116;-76
2024/01/30 09:54:38;;;;;;;64.50;42.17;;;8.80;99.90;;;;;;5024063;28;20077;-76
2024/01/30 09:57:04;;;;;;;69.18;43.50;;;8.80;99.90;;;;;;5020078;28;20063;-76
2024/01/30 09:59:31;;;;;;;66.07;43.17;;;8.80;99.90;;;;;;5023906;28;20052;-76
2024/01/30 10:01:57;;;;;;;77.53;46.03;;;8.80;99.90;;;;;;5022196;28;20041;-76
2024/01/30 10:04:23;;;;;;;63.20;42.58;;;8.80;99.90;;;;;;5023729;28;20073;-76
2024/01/30 10:06:49;;;;;;;74.93;41.90;;;8.80;99.90;;;;;;5027512;28;20045;-76
2024/01/30 10:09:15;;;;;;;65.03;42.03;;;8.90;99.90;;;;;;5023869;28;20421;-76
2024/01/30 10:11:40;;;;;;;65.60;39.70;;;9.00;99.90;;;;;;5012968;28;20037;-76
2024/01/30 10:14:06;;;;;;;64.25;39.72;;;9.00;99.90;;;;;;5020878;28;20506;-75
2024/01/30 10:16:31;;;;;;;61.47;39.55;;;9.10;99.90;;;;;;5026307;28;20038;-75
2024/01/30 10:18:57;;;;;;;73.30;42.25;;;9.20;99.90;;;;;;5017138;28;20081;-75
2024/01/30 10:21:23;;;;;;;70.28;41.85;;;9.20;99.90;;;;;;5029524;28;20061;-76
2024/01/30 10:23:49;;;;;;;58.42;41.25;;;9.30;99.90;;;;;;5022791;28;20120;-76
2024/01/30 10:26:17;;;;;;;55.97;38.40;;;9.30;99.90;;;;;;5032069;28;20052;-75
2024/01/30 10:28:49;;;;;;;60.58;39.53;;;9.40;99.90;;;;;;5029947;28;20038;-77
2024/01/30 10:31:18;;;;;;;73.00;40.45;;;9.50;99.90;;;;;;5017288;28;20405;-75
2024/01/30 10:33:45;;;;;;;71.82;41.08;;;9.50;99.90;;;;;;5013579;28;20628;-76
2024/01/30 10:36:15;;;;;;;68.43;40.65;;;9.60;99.90;;;;;;5028102;28;20045;-76
2024/01/30 10:38:42;;;;;;;62.70;37.20;;;9.70;99.90;;;;;;5024850;28;20041;-76
2024/01/30 10:41:13;;;;;;;61.75;37.80;;;9.70;99.90;;;;;;5022635;28;20042;-76
2024/01/30 10:43:42;;;;;;;52.95;36.25;;;9.80;99.90;;;;;;5023521;28;20421;-75
2024/01/30 10:46:27;;;;;;;66.57;37.70;;;9.90;99.90;;;;;;5017295;28;20050;-76
2024/01/30 10:48:58;;;;;;;69.20;38.13;;;10.00;99.90;;;;;;5019249;28;20053;-76
2024/01/30 10:51:29;;;;;;;61.10;37.35;;;10.00;99.90;;;;;;5027685;28;20046;-76
2024/01/30 10:53:56;;;;;;;62.20;35.95;;;10.10;99.90;;;;;;5021035;28;20087;-75
2024/01/30 10:56:22;;;;;;;64.35;39.60;;;10.10;99.90;;;;;;5028715;28;20042;-75
2024/01/30 10:58:51;;;;;;;63.22;36.03;;;10.10;99.90;;;;;;5029052;28;20685;-76
2024/01/30 11:01:17;;;;;;;61.83;38.08;;;10.20;99.90;;;;;;5019804;28;20053;-76
2024/01/30 11:03:43;;;;;;;73.45;49.13;;;10.20;99.90;;;;;;5024867;28;20041;-75
2024/01/30 11:06:13;;;;;;;62.78;43.63;;;10.20;99.90;;;;;;5022334;28;20406;-75
2024/01/30 11:08:39;;;;;;;61.92;38.63;;;10.20;99.90;;;;;;5025002;28;20049;-75
2024/01/30 11:11:09;;;;;;;67.70;35.75;;;10.20;99.90;;;;;;5023648;28;20045;-76
2024/01/30 11:13:35;;;;;;;74.35;38.15;;;10.20;99.90;;;;;;5022355;28;20038;-76
2024/01/30 11:16:05;;;;;;;58.38;36.92;;;10.30;99.90;;;;;;5025282;28;20049;-76
2024/01/30 11:18:32;;;;;;;59.58;36.53;;;10.20;99.90;;;;;;5016976;28;20062;-75
2024/01/30 11:21:01;;;;;;;63.38;35.80;;;10.20;99.90;;;;;;5024122;28;20175;-75
2024/01/30 11:23:28;;;;;;;60.58;37.42;;;10.30;99.90;;;;;;5019821;28;20041;-75
2024/01/30 11:25:54;;;;;;;65.95;36.05;;;10.30;99.90;;;;;;5024072;28;20049;-75
2024/01/30 11:28:22;;;;;;;55.13;35.50;;;10.30;99.90;;;;;;5026550;28;20099;-75
2024/01/30 11:30:50;;;;;;;62.55;35.58;;;10.30;99.90;;;;;;5018086;28;20073;-75
2024/01/30 11:33:27;;;;;;;;;;;10.30;99.90;;;;;;5027389;28;20454;-75
2024/01/30 11:35:53;;;;;;;60.58;35.53;;;10.30;99.90;;;;;;5020010;28;20064;-76
2024/01/30 11:38:18;;;;;;;56.67;36.10;;;10.30;99.90;;;;;;5022318;28;20129;-75
2024/01/30 11:40:45;;;;;;;62.92;36.90;;;10.30;99.90;;;;;;5024020;28;20038;-76
2024/01/30 11:43:11;;;;;;;57.25;35.00;;;10.30;99.90;;;;;;5023369;28;20128;-76
2024/01/30 11:45:39;;;;;;;63.88;37.28;;;10.40;99.90;;;;;;5024757;28;20042;-76
2024/01/30 11:48:05;;;;;;;58.75;36.03;;;10.40;99.90;;;;;;5026881;28;20041;-76
2024/01/30 11:50:31;;;;;;;77.60;38.47;;;10.30;99.90;;;;;;5020182;28;20072;-76
2024/01/30 11:52:59;;;;;;;58.90;37.35;;;10.30;99.90;;;;;;5025958;28;20080;-76
2024/01/30 11:55:25;;;;;;;62.40;37.40;;;10.40;99.90;;;;;;5026715;28;20102;-76
2024/01/30 11:57:51;;;;;;;66.53;38.13;;;10.30;99.90;;;;;;5023874;28;20046;-76
2024/01/30 12:00:18;;;;;;;67.57;37.28;;;10.30;99.90;;;;;;5027514;28;20080;-76
2024/01/30 12:02:48;;;;;;;65.90;38.63;;;10.30;99.90;;;;;;5022144;28;20041;-75
2024/01/30 12:05:14;;;;;;;64.43;37.25;;;10.30;99.90;;;;;;5027984;28;20049;-75
2024/01/30 12:07:39;;;;;;;69.22;40.72;;;10.40;99.90;;;;;;5023349;28;20800;-75
2024/01/30 12:10:05;;;;;;;65.15;38.40;;;10.40;99.90;;;;;;5033603;28;20056;-76
2024/01/30 12:12:31;;;;;;;60.95;37.88;;;10.40;99.90;;;;;;5026280;28;20041;-76
2024/01/30 12:14:57;;;;;;;71.40;38.80;;;10.40;99.90;;;;;;5024716;28;20061;-75
2024/01/30 12:17:30;;;;;;;68.45;39.85;;;10.50;99.90;;;;;;5024166;28;20537;-75
2024/01/30 12:20:06;;;;;;;67.32;40.38;;;10.50;99.90;;;;;;5024895;28;20136;-75
2024/01/30 12:22:42;;;;;;;61.33;39.75;;;10.60;99.90;;;;;;5026564;28;20045;-76
2024/01/30 12:25:16;;;;;;;68.93;38.17;;;10.70;99.90;;;;;;5027129;28;20120;-76
2024/01/30 12:27:49;;;;;;;67.68;40.42;;;10.70;99.90;;;;;;5027152;28;20693;-76
2024/01/30 12:30:15;;;;;;;59.55;38.25;;;10.80;99.90;;;;;;5023856;28;20038;-75